createdAt,value
2018-11-03T00:01:24.994Z,7.10
2018-11-03T00:03:55.133Z,7.10
2018-11-03T00:06:25.057Z,7.10
2018-11-03T00:08:55.040Z,7.10
2018-11-03T00:11:25.049Z,7.00
2018-11-03T00:13:55.065Z,6.90
2018-11-03T00:16:25.091Z,6.90
2018-11-03T00:18:55.096Z,6.80
2018-11-03T00:21:25.060Z,6.80
2018-11-03T00:23:55.046Z,6.80
2018-11-03T00:26:25.980Z,6.80
2018-11-03T00:28:55.461Z,6.70
2018-11-03T00:31:25.140Z,6.70
2018-11-03T00:33:55.178Z,6.70
2018-11-03T00:36:25.141Z,6.70
2018-11-03T00:38:55.119Z,6.60
2018-11-03T00:41:25.075Z,6.60
2018-11-03T00:43:55.103Z,6.50
2018-11-03T00:46:25.236Z,6.50
2018-11-03T00:48:55.147Z,6.50
2018-11-03T00:51:25.185Z,6.50
2018-11-03T00:53:55.064Z,6.50
2018-11-03T00:56:25.082Z,6.50
2018-11-03T00:58:55.244Z,6.50
2018-11-03T01:01:25.149Z,6.50
2018-11-03T01:03:55.174Z,6.50
2018-11-03T01:06:25.218Z,6.50
2018-11-03T01:08:55.260Z,6.50
2018-11-03T01:11:25.117Z,6.40
2018-11-03T01:13:55.212Z,6.40
2018-11-03T01:16:25.205Z,6.30
2018-11-03T01:18:55.210Z,6.40
2018-11-03T01:21:25.283Z,6.30
2018-11-03T01:23:55.213Z,6.30
2018-11-03T01:26:25.264Z,6.20
2018-11-03T01:28:55.239Z,6.20
2018-11-03T01:31:25.595Z,6.20
2018-11-03T01:33:55.290Z,6.20
2018-11-03T01:36:25.364Z,6.20
2018-11-03T01:38:55.262Z,6.20
2018-11-03T01:41:25.279Z,6.20
2018-11-03T01:43:55.205Z,6.20
2018-11-03T01:46:25.260Z,6.20
2018-11-03T01:48:55.301Z,6.20
2018-11-03T01:51:25.282Z,6.10
2018-11-03T01:53:55.330Z,6.20
2018-11-03T01:56:25.456Z,6.20
2018-11-03T01:58:55.493Z,6.20
2018-11-03T02:01:25.304Z,6.10
2018-11-03T02:03:55.217Z,6.10
2018-11-03T02:06:28.953Z,6.10
2018-11-03T02:08:58.225Z,6.10
2018-11-03T02:11:27.536Z,6.10
2018-11-03T02:13:56.869Z,6.10
2018-11-03T02:16:26.232Z,6.10
2018-11-03T02:18:55.537Z,6.00
2018-11-03T02:21:25.324Z,6.10
2018-11-03T02:23:55.373Z,6.10
2018-11-03T02:26:25.374Z,6.10
2018-11-03T02:28:55.334Z,6.10
2018-11-03T02:31:26.309Z,6.10
2018-11-03T02:33:55.681Z,6.10
2018-11-03T02:36:25.450Z,6.10
2018-11-03T02:38:55.342Z,6.00
2018-11-03T02:41:25.408Z,5.90
2018-11-03T02:43:55.429Z,5.90
2018-11-03T02:46:25.363Z,5.90
2018-11-03T02:48:55.370Z,5.90
2018-11-03T02:51:25.527Z,5.90
2018-11-03T02:53:55.506Z,5.90
2018-11-03T02:56:25.598Z,5.80
2018-11-03T02:58:55.422Z,5.80
2018-11-03T03:01:29.215Z,5.70
2018-11-03T03:03:58.528Z,5.70
2018-11-03T03:06:27.852Z,5.70
2018-11-03T03:08:57.093Z,5.70
2018-11-03T03:11:26.472Z,5.70
2018-11-03T03:13:55.846Z,5.70
2018-11-03T03:16:25.478Z,5.70
2018-11-03T03:18:55.527Z,5.70
2018-11-03T03:21:25.601Z,5.70
2018-11-03T03:23:55.570Z,5.70
2018-11-03T03:26:25.503Z,5.60
2018-11-03T03:28:55.619Z,5.60
2018-11-03T03:31:25.505Z,5.60
2018-11-03T03:33:55.621Z,5.60
2018-11-03T03:36:25.636Z,5.50
2018-11-03T03:38:55.596Z,5.50
2018-11-03T03:41:25.639Z,5.50
2018-11-03T03:43:55.502Z,5.40
2018-11-03T03:46:25.620Z,5.40
2018-11-03T03:48:55.588Z,5.40
2018-11-03T03:51:25.626Z,5.40
2018-11-03T03:53:55.549Z,5.40
2018-11-03T03:56:25.554Z,5.40
2018-11-03T03:58:55.685Z,5.40
2018-11-03T04:01:25.572Z,5.40
2018-11-03T04:03:55.681Z,5.40
2018-11-03T04:06:25.656Z,5.30
2018-11-03T04:08:55.730Z,5.40
2018-11-03T04:11:25.625Z,5.30
2018-11-03T04:13:55.741Z,5.30
2018-11-03T04:16:25.718Z,5.30
2018-11-03T04:18:55.638Z,5.40
2018-11-03T04:21:29.864Z,5.30
2018-11-03T04:23:59.645Z,5.30
2018-11-03T04:26:30.867Z,5.30
2018-11-03T04:29:00.295Z,5.20
2018-11-03T04:31:29.633Z,5.20
2018-11-03T04:33:59.036Z,5.30
2018-11-03T04:36:28.330Z,5.20
2018-11-03T04:38:57.704Z,5.20
2018-11-03T04:41:27.063Z,5.20
2018-11-03T04:43:56.405Z,5.10
2018-11-03T04:46:25.785Z,5.20
2018-11-03T04:49:02.777Z,5.20
2018-11-03T04:51:33.547Z,5.20
2018-11-03T04:54:02.871Z,5.10
2018-11-03T04:56:32.224Z,5.10
2018-11-03T04:59:01.554Z,5.10
2018-11-03T05:01:30.912Z,5.10
2018-11-03T05:04:00.228Z,5.10
2018-11-03T05:06:29.559Z,5.10
2018-11-03T05:08:58.890Z,5.00
2018-11-03T05:11:28.221Z,5.10
2018-11-03T05:13:57.544Z,5.10
2018-11-03T05:16:26.854Z,5.10
2018-11-03T05:18:56.201Z,5.10
2018-11-03T05:21:25.844Z,5.10
2018-11-03T05:23:55.829Z,5.00
2018-11-03T05:26:25.837Z,5.00
2018-11-03T05:28:55.807Z,5.00
2018-11-03T05:31:26.036Z,4.90
2018-11-03T05:33:55.885Z,5.00
2018-11-03T05:36:25.866Z,5.00
2018-11-03T05:38:55.943Z,4.90
2018-11-03T05:41:25.848Z,4.90
2018-11-03T05:43:55.887Z,4.90
2018-11-03T05:46:25.939Z,4.90
2018-11-03T05:48:55.904Z,4.90
2018-11-03T05:51:25.952Z,4.90
2018-11-03T05:53:55.873Z,4.80
2018-11-03T05:56:25.860Z,4.80
2018-11-03T05:58:55.948Z,4.80
2018-11-03T06:01:26.157Z,4.80
2018-11-03T06:03:55.947Z,4.80
2018-11-03T06:06:26.039Z,4.80
2018-11-03T06:08:56.025Z,4.80
2018-11-03T06:11:25.993Z,4.80
2018-11-03T06:13:55.865Z,4.80
2018-11-03T06:16:25.917Z,4.70
2018-11-03T06:18:58.632Z,4.70
2018-11-03T06:21:27.969Z,4.80
2018-11-03T06:23:57.301Z,4.80
2018-11-03T06:26:26.616Z,4.80
2018-11-03T06:28:56.047Z,4.70
2018-11-03T06:31:25.965Z,4.70
2018-11-03T06:33:56.075Z,4.70
2018-11-03T06:36:27.130Z,4.70
2018-11-03T06:38:56.729Z,4.70
2018-11-03T06:41:26.116Z,4.70
2018-11-03T06:43:56.055Z,4.70
2018-11-03T06:46:26.112Z,4.70
2018-11-03T06:49:00.111Z,4.70
2018-11-03T06:51:29.538Z,4.70
2018-11-03T06:53:59.394Z,4.70
2018-11-03T06:56:28.735Z,4.70
2018-11-03T06:58:58.096Z,4.80
2018-11-03T07:01:27.483Z,4.80
2018-11-03T07:03:56.839Z,4.80
2018-11-03T07:06:26.193Z,4.90
2018-11-03T07:08:56.064Z,4.90
2018-11-03T07:11:26.246Z,4.90
2018-11-03T07:13:56.084Z,5.00
2018-11-03T07:16:26.039Z,5.00
2018-11-03T07:18:56.104Z,5.10
2018-11-03T07:21:26.161Z,5.20
2018-11-03T07:23:56.098Z,5.20
2018-11-03T07:26:26.122Z,5.40
2018-11-03T07:28:56.168Z,5.40
2018-11-03T07:31:26.162Z,5.50
2018-11-03T07:33:56.224Z,5.60
2018-11-03T07:36:26.205Z,5.70
2018-11-03T07:38:56.113Z,5.80
2018-11-03T07:41:26.159Z,5.90
2018-11-03T07:43:56.169Z,5.90
2018-11-03T07:46:26.185Z,6.00
2018-11-03T07:48:56.316Z,6.10
2018-11-03T07:51:26.214Z,6.10
2018-11-03T07:53:57.542Z,6.20
2018-11-03T07:56:26.875Z,6.40
2018-11-03T07:58:56.196Z,6.50
2018-11-03T08:01:26.208Z,6.50
2018-11-03T08:03:56.112Z,6.50
2018-11-03T08:06:26.268Z,6.50
2018-11-03T08:08:56.265Z,6.60
2018-11-03T08:11:26.158Z,6.70
2018-11-03T08:13:57.320Z,6.80
2018-11-03T08:16:26.616Z,6.80
2018-11-03T08:18:56.207Z,6.90
2018-11-03T08:21:26.261Z,6.90
2018-11-03T08:23:56.423Z,6.90
2018-11-03T08:26:26.207Z,6.90
2018-11-03T08:28:56.335Z,6.90
2018-11-03T08:31:26.237Z,7.00
2018-11-03T08:33:56.371Z,7.20
2018-11-03T08:36:26.290Z,7.30
2018-11-03T08:38:56.282Z,7.40
2018-11-03T08:41:26.338Z,7.50
2018-11-03T08:43:56.352Z,7.50
2018-11-03T08:46:26.283Z,7.60
2018-11-03T08:48:56.379Z,7.70
2018-11-03T08:51:26.369Z,7.70
2018-11-03T08:53:56.289Z,7.80
2018-11-03T08:56:26.349Z,7.90
2018-11-03T08:58:56.261Z,8.00
2018-11-03T09:01:26.243Z,8.10
2018-11-03T09:03:56.348Z,8.20
2018-11-03T09:06:26.372Z,8.30
2018-11-03T09:09:01.963Z,8.40
2018-11-03T09:11:31.240Z,8.50
2018-11-03T09:14:00.592Z,8.70
2018-11-03T09:16:29.949Z,8.70
2018-11-03T09:18:59.209Z,8.90
2018-11-03T09:21:28.586Z,8.90
2018-11-03T09:23:57.942Z,9.10
2018-11-03T09:26:27.246Z,9.10
2018-11-03T09:28:56.651Z,9.20
2018-11-03T09:31:26.420Z,9.30
2018-11-03T09:33:56.389Z,9.40
2018-11-03T09:36:26.545Z,9.40
2018-11-03T09:38:56.441Z,9.50
2018-11-03T09:41:26.454Z,9.50
2018-11-03T09:43:56.427Z,9.50
2018-11-03T09:46:26.453Z,9.60
2018-11-03T09:48:56.499Z,9.60
2018-11-03T09:51:26.488Z,9.50
2018-11-03T09:53:56.512Z,9.50
2018-11-03T09:56:26.525Z,9.40
2018-11-03T09:58:56.444Z,9.40
2018-11-03T10:01:26.508Z,9.40
2018-11-03T10:03:56.579Z,9.40
2018-11-03T10:06:26.493Z,9.40
2018-11-03T10:08:56.488Z,9.40
2018-11-03T10:11:26.450Z,9.60
2018-11-03T10:13:56.564Z,9.90
2018-11-03T10:16:26.545Z,10.00
2018-11-03T10:18:56.666Z,10.10
2018-11-03T10:21:26.572Z,10.20
2018-11-03T10:23:56.556Z,10.30
2018-11-03T10:26:26.555Z,10.40
2018-11-03T10:28:56.519Z,10.50
2018-11-03T10:31:26.621Z,10.60
2018-11-03T10:33:56.599Z,10.70
2018-11-03T10:36:26.619Z,10.70
2018-11-03T10:38:56.611Z,10.70
2018-11-03T10:41:26.487Z,10.80
2018-11-03T10:43:56.570Z,10.80
2018-11-03T10:46:26.580Z,11.00
2018-11-03T10:48:56.655Z,11.10
2018-11-03T10:51:26.624Z,11.30
2018-11-03T10:53:56.738Z,11.30
2018-11-03T10:56:26.557Z,11.30
2018-11-03T10:58:56.612Z,11.40
2018-11-03T11:01:31.820Z,11.50
2018-11-03T11:04:06.453Z,11.70
2018-11-03T11:06:40.957Z,11.70
2018-11-03T11:09:15.436Z,11.80
2018-11-03T11:11:50.234Z,11.90
2018-11-03T11:14:20.138Z,11.90
2018-11-03T11:16:49.400Z,12.00
2018-11-03T11:19:18.692Z,12.10
2018-11-03T11:21:48.023Z,12.10
2018-11-03T11:24:17.486Z,12.00
2018-11-03T11:26:46.722Z,12.10
2018-11-03T11:29:16.026Z,12.10
2018-11-03T11:31:45.429Z,12.10
2018-11-03T11:34:14.733Z,12.00
2018-11-03T11:36:44.998Z,12.10
2018-11-03T11:39:14.373Z,12.10
2018-11-03T11:41:43.751Z,12.20
2018-11-03T11:44:13.123Z,12.20
2018-11-03T11:46:42.481Z,12.30
2018-11-03T11:49:11.817Z,12.30
2018-11-03T11:51:41.189Z,12.40
2018-11-03T11:54:10.476Z,12.50
2018-11-03T11:56:40.004Z,12.60
2018-11-03T11:59:09.407Z,12.50
2018-11-03T12:01:39.087Z,12.50
2018-11-03T12:04:08.829Z,12.50
2018-11-03T12:06:38.274Z,12.50
2018-11-03T12:09:09.417Z,12.60
2018-11-03T12:11:38.780Z,12.60
2018-11-03T12:14:08.065Z,12.60
2018-11-03T12:16:37.419Z,12.60
2018-11-03T12:19:06.744Z,12.60
2018-11-03T12:21:36.069Z,12.60
2018-11-03T12:24:06.322Z,12.70
2018-11-03T12:26:35.667Z,12.70
2018-11-03T12:29:05.241Z,12.40
2018-11-03T12:31:39.213Z,12.40
2018-11-03T13:05:41.609Z,12.30
2018-11-03T13:08:17.462Z,12.30
2018-11-03T13:10:46.840Z,12.30
2018-11-03T13:13:16.193Z,12.30
2018-11-03T13:15:45.590Z,12.10
2018-11-03T13:18:14.899Z,12.10
2018-11-03T13:20:44.211Z,12.00
2018-11-03T13:23:13.551Z,12.40
2018-11-03T13:25:42.888Z,12.40
2018-11-03T13:28:12.229Z,12.40
2018-11-03T13:30:41.545Z,12.20
2018-11-03T13:33:10.883Z,12.20
2018-11-03T13:35:40.300Z,12.20
2018-11-03T13:38:09.704Z,12.20
2018-11-03T13:40:39.135Z,12.10
2018-11-03T13:43:08.479Z,12.00
2018-11-03T13:45:37.873Z,12.00
2018-11-03T13:48:07.255Z,12.00
2018-11-03T13:50:36.676Z,11.90
2018-11-03T13:53:06.101Z,11.90
2018-11-03T13:55:38.774Z,11.80
2018-11-03T13:58:08.077Z,11.70
2018-11-03T14:00:37.417Z,11.60
2018-11-03T14:03:06.803Z,11.50
2018-11-03T14:05:36.088Z,11.50
2018-11-03T14:08:05.698Z,11.50
2018-11-03T14:10:35.046Z,11.50
2018-11-03T14:13:04.542Z,11.50
2018-11-03T14:15:33.886Z,11.40
2018-11-03T14:18:03.187Z,11.40
2018-11-03T14:20:32.583Z,11.30
2018-11-03T14:23:01.849Z,11.20
2018-11-03T14:25:31.144Z,11.20
2018-11-03T14:28:00.602Z,11.20
2018-11-03T14:30:29.966Z,11.10
2018-11-03T14:32:59.278Z,11.10
2018-11-03T14:35:28.695Z,11.10
2018-11-03T14:37:58.008Z,11.00
2018-11-03T14:40:27.355Z,11.00
2018-11-03T14:42:56.793Z,11.00
2018-11-03T14:45:26.163Z,11.00
2018-11-03T14:47:55.494Z,10.90
2018-11-03T14:50:28.873Z,10.90
2018-11-03T14:52:58.202Z,10.80
2018-11-03T14:55:27.564Z,10.80
2018-11-03T14:57:56.882Z,10.70
2018-11-03T15:00:26.290Z,10.70
2018-11-03T15:02:55.598Z,10.70
2018-11-03T15:05:24.952Z,10.70
2018-11-03T15:07:54.340Z,10.60
2018-11-03T15:10:23.645Z,10.50
2018-11-03T15:12:52.987Z,10.50
2018-11-03T15:15:22.374Z,10.50
2018-11-03T15:17:51.748Z,10.50
2018-11-03T15:20:21.105Z,10.40
2018-11-03T15:22:50.473Z,10.40
2018-11-03T15:25:20.054Z,10.30
2018-11-03T15:27:50.149Z,10.30
2018-11-03T15:30:20.121Z,10.20
2018-11-03T15:32:50.169Z,10.20
2018-11-03T15:35:20.209Z,10.10
2018-11-03T15:37:50.211Z,10.00
2018-11-03T15:40:20.133Z,10.00
2018-11-03T15:42:50.124Z,9.90
2018-11-03T15:45:20.171Z,9.90
2018-11-03T15:47:50.295Z,9.80
2018-11-03T15:50:20.186Z,9.80
2018-11-03T15:52:50.023Z,9.80
2018-11-03T15:55:20.124Z,9.70
2018-11-03T15:57:50.161Z,9.60
2018-11-03T16:00:21.606Z,9.60
2018-11-03T16:02:50.942Z,9.60
2018-11-03T16:05:20.200Z,9.50
2018-11-03T16:07:50.290Z,9.40
2018-11-03T16:10:20.079Z,9.40
2018-11-03T16:12:50.191Z,9.30
2018-11-03T16:15:20.227Z,9.30
2018-11-03T16:17:50.198Z,9.20
2018-11-03T16:20:20.266Z,9.10
2018-11-03T16:22:50.347Z,9.10
2018-11-03T16:25:20.335Z,9.10
2018-11-03T16:27:50.278Z,9.00
2018-11-03T16:30:20.381Z,9.00
2018-11-03T16:32:50.328Z,9.00
2018-11-03T16:35:20.396Z,8.90
2018-11-03T16:37:50.308Z,8.90
2018-11-03T16:40:20.599Z,8.80
2018-11-03T16:42:50.380Z,8.70
2018-11-03T16:45:20.189Z,8.70
2018-11-03T16:47:50.314Z,8.70
2018-11-03T16:50:20.781Z,8.70
2018-11-03T16:52:50.298Z,8.60
2018-11-03T16:55:20.363Z,8.60
2018-11-03T16:57:50.318Z,8.50
2018-11-03T17:00:20.414Z,8.50
2018-11-03T17:02:50.444Z,8.50
2018-11-03T17:05:20.396Z,8.50
2018-11-03T17:07:50.516Z,8.40
2018-11-03T17:10:20.399Z,8.40
2018-11-03T17:12:50.569Z,8.40
2018-11-03T17:15:20.450Z,8.30
2018-11-03T17:17:50.593Z,8.30
2018-11-03T17:20:20.478Z,8.20
2018-11-03T17:22:50.548Z,8.20
2018-11-03T17:25:20.572Z,8.20
2018-11-03T17:27:50.519Z,8.10
2018-11-03T17:30:20.575Z,8.10
2018-11-03T17:32:50.640Z,8.10
2018-11-03T17:35:20.572Z,8.00
2018-11-03T17:37:50.519Z,8.20
2018-11-03T17:40:20.555Z,8.10
2018-11-03T17:42:50.561Z,8.00
2018-11-03T17:45:20.554Z,8.00
2018-11-03T17:47:50.521Z,8.00
2018-11-03T17:50:20.552Z,7.90
2018-11-03T17:52:50.541Z,7.90
2018-11-03T17:55:20.487Z,7.80
2018-11-03T17:57:50.515Z,7.70
2018-11-03T18:00:20.789Z,7.70
2018-11-03T18:02:50.553Z,7.70
2018-11-03T18:05:20.618Z,7.70
2018-11-03T18:07:50.486Z,7.60
2018-11-03T18:10:20.661Z,7.60
2018-11-03T18:12:50.647Z,7.60
2018-11-03T18:15:20.538Z,7.50
2018-11-03T18:17:50.674Z,7.50
2018-11-03T18:20:20.638Z,7.50
2018-11-03T18:22:50.625Z,7.50
2018-11-03T18:25:22.300Z,7.40
2018-11-03T18:27:51.589Z,7.40
2018-11-03T18:30:20.945Z,7.30
2018-11-03T18:32:50.821Z,7.30
2018-11-03T18:35:20.583Z,7.30
2018-11-03T18:37:50.780Z,7.30
2018-11-03T18:40:20.699Z,7.20
2018-11-03T18:42:50.622Z,7.20
2018-11-03T18:45:20.726Z,7.10
2018-11-03T18:47:50.612Z,7.00
2018-11-03T18:50:20.672Z,7.00
2018-11-03T18:52:50.745Z,7.00
2018-11-03T18:55:20.632Z,7.00
2018-11-03T18:57:50.677Z,7.00
2018-11-03T19:00:20.658Z,6.90
2018-11-03T19:02:50.699Z,6.90
2018-11-03T19:05:20.701Z,6.80
2018-11-03T19:07:50.758Z,6.80
2018-11-03T19:10:27.436Z,6.80
2018-11-03T19:12:56.732Z,6.70
2018-11-03T19:15:26.057Z,6.70
2018-11-03T19:17:55.354Z,6.70
2018-11-03T19:20:24.760Z,6.70
2018-11-03T19:22:54.347Z,6.70
2018-11-03T19:25:23.757Z,6.60
2018-11-03T19:27:53.183Z,6.70
2018-11-03T19:30:22.580Z,6.60
2018-11-03T19:32:51.948Z,6.60
2018-11-03T19:35:21.288Z,6.60
2018-11-03T19:37:50.834Z,6.60
2018-11-03T19:40:20.825Z,6.50
2018-11-03T19:42:50.854Z,6.50
2018-11-03T19:45:20.978Z,6.60
2018-11-03T19:47:51.084Z,6.50
2018-11-03T19:50:20.849Z,6.50
2018-11-03T19:52:50.817Z,6.50
2018-11-03T19:55:21.080Z,6.50
2018-11-03T19:57:50.881Z,6.50
2018-11-03T20:00:27.728Z,6.50
2018-11-03T20:02:57.063Z,6.50
2018-11-03T20:05:26.339Z,6.50
2018-11-03T20:07:55.714Z,6.40
2018-11-03T20:10:25.027Z,6.50
2018-11-03T20:12:54.430Z,6.50
2018-11-03T20:15:23.770Z,6.40
2018-11-03T20:17:53.252Z,6.30
2018-11-03T20:20:22.558Z,6.30
2018-11-03T20:22:51.827Z,6.20
2018-11-03T20:25:21.223Z,6.20
2018-11-03T20:27:50.915Z,6.20
2018-11-03T20:30:20.910Z,6.20
2018-11-03T20:32:50.939Z,6.10
2018-11-03T20:35:20.820Z,6.10
2018-11-03T20:37:52.735Z,6.10
2018-11-03T20:40:22.008Z,6.00
2018-11-03T20:42:51.342Z,6.00
2018-11-03T20:45:20.943Z,6.00
2018-11-03T20:47:50.948Z,6.00
2018-11-03T20:50:20.880Z,6.00
2018-11-03T20:52:50.916Z,6.00
2018-11-03T20:55:20.866Z,5.90
2018-11-03T20:57:50.954Z,5.90
2018-11-03T21:00:20.975Z,5.90
2018-11-03T21:02:50.870Z,5.90
2018-11-03T21:05:20.897Z,5.90
2018-11-03T21:07:51.021Z,5.90
2018-11-03T21:10:20.872Z,5.80
2018-11-03T21:12:50.979Z,5.80
2018-11-03T21:15:20.961Z,5.80
2018-11-03T21:17:51.067Z,5.80
2018-11-03T21:20:20.958Z,5.70
2018-11-03T21:22:50.981Z,5.70
2018-11-03T21:25:21.101Z,5.70
2018-11-03T21:27:50.897Z,5.70
2018-11-03T21:30:20.978Z,5.70
2018-11-03T21:32:51.147Z,5.70
2018-11-03T21:35:20.923Z,5.70
2018-11-03T21:37:51.030Z,5.60
2018-11-03T21:40:21.054Z,5.60
2018-11-03T21:42:51.156Z,5.60
2018-11-03T21:45:21.003Z,5.60
2018-11-03T21:47:51.085Z,5.60
2018-11-03T21:50:21.075Z,5.50
2018-11-03T21:52:51.034Z,5.50
2018-11-03T21:55:20.947Z,5.50
2018-11-03T21:57:51.104Z,5.50
2018-11-03T22:00:21.155Z,5.50
2018-11-03T22:02:51.002Z,5.50
2018-11-03T22:05:21.077Z,5.50
2018-11-03T22:07:51.047Z,5.50
2018-11-03T22:10:21.297Z,5.40
2018-11-03T22:12:51.030Z,5.40
2018-11-03T22:15:21.059Z,5.40
2018-11-03T22:17:51.108Z,5.40
2018-11-03T22:20:21.059Z,5.40
2018-11-03T22:22:51.178Z,5.40
2018-11-03T22:25:21.182Z,5.40
2018-11-03T22:27:51.122Z,5.40
2018-11-03T22:30:21.255Z,5.40
2018-11-03T22:32:51.081Z,5.40
2018-11-03T22:35:21.223Z,5.30
2018-11-03T22:37:51.101Z,5.30
2018-11-03T22:40:21.209Z,5.30
2018-11-03T22:42:51.287Z,5.30
2018-11-03T22:45:21.312Z,5.30
2018-11-03T22:47:51.461Z,5.30
2018-11-03T22:50:21.252Z,5.30
2018-11-03T22:52:51.585Z,5.30
2018-11-03T22:55:21.312Z,5.20
2018-11-03T22:57:51.333Z,5.20
2018-11-03T23:00:21.385Z,5.20
2018-11-03T23:02:51.444Z,5.20
2018-11-03T23:05:21.376Z,5.20
2018-11-03T23:07:52.957Z,5.20
2018-11-03T23:10:22.250Z,5.20
2018-11-03T23:12:51.595Z,5.10
2018-11-03T23:15:21.420Z,5.10
2018-11-03T23:17:51.284Z,5.10
2018-11-03T23:20:21.350Z,5.10
2018-11-03T23:22:51.325Z,5.00
2018-11-03T23:25:21.337Z,5.00
2018-11-03T23:27:51.439Z,5.00
2018-11-03T23:30:21.455Z,5.00
2018-11-03T23:32:51.454Z,5.00
2018-11-03T23:35:21.518Z,5.00
2018-11-03T23:37:51.653Z,4.90
2018-11-03T23:40:21.455Z,5.00
2018-11-03T23:42:51.493Z,5.00
2018-11-03T23:45:21.463Z,5.00
2018-11-03T23:47:51.442Z,5.00
2018-11-03T23:50:21.493Z,5.00
2018-11-03T23:52:51.491Z,5.00
2018-11-03T23:55:21.471Z,4.90
2018-11-03T23:57:52.421Z,4.90
